createdAt,value
2023-04-30T00:00:31.047Z,90.96
2023-04-30T00:02:58.016Z,91.13
2023-04-30T00:05:24.956Z,91.49
2023-04-30T00:07:51.764Z,91.41
2023-04-30T00:10:18.560Z,91.35
2023-04-30T00:12:45.481Z,91.65
2023-04-30T00:15:12.534Z,91.68
2023-04-30T00:17:39.480Z,91.21
2023-04-30T00:20:07.432Z,91.81
2023-04-30T00:22:34.307Z,92.08
2023-04-30T00:25:01.398Z,91.56
2023-04-30T00:27:28.469Z,90.74
2023-04-30T00:29:55.737Z,90.72
2023-04-30T00:32:22.980Z,91.21
2023-04-30T00:34:49.982Z,91.04
2023-04-30T00:37:16.868Z,91.27
2023-04-30T00:39:43.736Z,91.27
2023-04-30T00:42:10.881Z,91.14
2023-04-30T00:44:37.666Z,91.09
2023-04-30T00:47:04.501Z,91.73
2023-04-30T00:49:31.716Z,92.35
2023-04-30T00:51:58.548Z,92.61
2023-04-30T00:54:26.124Z,93.16
2023-04-30T00:56:53.032Z,92.66
2023-04-30T00:59:19.906Z,93.02
2023-04-30T01:01:47.499Z,92.36
2023-04-30T01:04:14.471Z,92.92
2023-04-30T01:06:41.759Z,92.92
2023-04-30T01:09:10.540Z,92.57
2023-04-30T01:11:46.210Z,92.67
2023-04-30T01:14:22.197Z,92.60
2023-04-30T01:16:58.545Z,92.10
2023-04-30T01:19:28.242Z,92.73
2023-04-30T01:22:01.801Z,92.56
2023-04-30T01:24:51.173Z,92.53
2023-04-30T01:27:29.595Z,92.38
2023-04-30T01:29:58.180Z,91.87
2023-04-30T01:32:26.053Z,92.01
2023-04-30T01:34:52.929Z,92.66
2023-04-30T01:37:28.655Z,93.13
2023-04-30T01:40:14.392Z,93.43
2023-04-30T01:43:02.360Z,92.85
2023-04-30T01:45:32.091Z,92.61
2023-04-30T01:48:14.511Z,93.12
2023-04-30T01:50:49.814Z,93.10
2023-04-30T01:53:31.388Z,92.20
2023-04-30T01:56:04.348Z,92.82
2023-04-30T01:58:32.523Z,92.76
2023-04-30T02:00:59.328Z,92.98
2023-04-30T02:03:26.283Z,93.55
2023-04-30T02:05:53.422Z,93.66
2023-04-30T02:08:21.325Z,93.88
2023-04-30T02:10:48.264Z,93.07
2023-04-30T02:13:15.424Z,93.32
2023-04-30T02:15:42.266Z,93.38
2023-04-30T02:18:09.395Z,93.54
2023-04-30T02:20:36.297Z,94.29
2023-04-30T02:23:03.099Z,94.08
2023-04-30T02:25:33.236Z,94.31
2023-04-30T02:28:00.052Z,93.98
2023-04-30T02:30:26.877Z,93.67
2023-04-30T02:32:53.803Z,94.20
2023-04-30T02:35:20.888Z,93.45
2023-04-30T02:37:47.726Z,93.60
2023-04-30T02:40:14.746Z,94.17
2023-04-30T02:42:41.575Z,93.06
2023-04-30T02:45:08.929Z,93.59
2023-04-30T02:47:36.395Z,94.09
2023-04-30T02:50:04.167Z,94.25
2023-04-30T02:52:32.577Z,94.70
2023-04-30T02:54:59.464Z,94.11
2023-04-30T02:57:26.644Z,94.04
2023-04-30T02:59:53.735Z,93.37
2023-04-30T03:02:23.779Z,93.67
2023-04-30T03:04:51.485Z,94.13
2023-04-30T03:07:18.426Z,94.21
2023-04-30T03:09:46.328Z,94.29
2023-04-30T03:12:14.745Z,94.14
2023-04-30T03:14:41.982Z,93.80
2023-04-30T03:17:08.833Z,94.50
2023-04-30T03:19:35.763Z,93.93
2023-04-30T03:22:03.529Z,94.22
2023-04-30T03:24:30.572Z,94.07
2023-04-30T03:26:57.374Z,93.97
2023-04-30T03:29:24.299Z,93.65
2023-04-30T03:31:51.502Z,94.32
2023-04-30T03:34:18.584Z,94.27
2023-04-30T03:36:45.659Z,94.46
2023-04-30T03:39:12.596Z,93.52
2023-04-30T03:41:39.509Z,93.19
2023-04-30T03:44:06.613Z,93.17
2023-04-30T03:46:33.527Z,93.42
2023-04-30T03:49:00.709Z,93.68
2023-04-30T03:51:27.719Z,93.30
2023-04-30T03:53:54.565Z,93.19
2023-04-30T03:56:21.528Z,93.70
2023-04-30T03:58:48.435Z,93.02
2023-04-30T04:01:15.263Z,93.20
2023-04-30T04:03:42.144Z,93.64
2023-04-30T04:06:09.073Z,93.49
2023-04-30T04:08:36.876Z,92.76
2023-04-30T04:11:03.784Z,93.22
2023-04-30T04:13:30.921Z,93.09
2023-04-30T04:15:57.896Z,93.67
2023-04-30T04:18:24.760Z,93.60
2023-04-30T04:20:52.436Z,93.31
2023-04-30T04:23:20.473Z,93.62
2023-04-30T04:25:49.825Z,93.82
2023-04-30T04:28:17.346Z,94.59
2023-04-30T04:30:44.392Z,93.96
2023-04-30T04:33:11.991Z,93.88
2023-04-30T04:35:38.984Z,94.19
2023-04-30T04:38:05.781Z,94.12
2023-04-30T04:40:33.313Z,93.67
2023-04-30T04:43:00.207Z,93.43
2023-04-30T04:45:27.112Z,93.44
2023-04-30T04:47:54.202Z,93.26
2023-04-30T04:50:21.542Z,93.48
2023-04-30T04:52:48.883Z,93.91
2023-04-30T04:55:15.900Z,93.23
2023-04-30T04:57:43.293Z,92.64
2023-04-30T05:00:11.922Z,92.68
2023-04-30T05:02:38.979Z,93.17
2023-04-30T05:05:07.088Z,93.88
2023-04-30T05:07:35.213Z,93.82
2023-04-30T05:10:02.682Z,93.95
2023-04-30T05:12:30.531Z,94.28
2023-04-30T05:14:57.309Z,94.38
2023-04-30T05:17:24.223Z,94.44
2023-04-30T05:19:51.816Z,94.35
2023-04-30T05:22:18.670Z,94.30
2023-04-30T05:24:45.919Z,93.81
2023-04-30T05:27:12.798Z,93.17
2023-04-30T05:29:39.614Z,92.64
2023-04-30T05:32:08.255Z,91.93
2023-04-30T05:34:35.280Z,91.99
2023-04-30T05:37:02.681Z,91.99
2023-04-30T05:39:29.579Z,91.91
2023-04-30T05:41:56.512Z,92.01
2023-04-30T05:44:23.325Z,92.10
2023-04-30T05:46:50.270Z,91.66
2023-04-30T05:49:17.086Z,91.40
2023-04-30T05:51:43.955Z,90.65
2023-04-30T05:54:10.800Z,90.60
2023-04-30T05:56:37.601Z,89.52
2023-04-30T05:59:04.388Z,86.61
2023-04-30T06:01:31.265Z,85.78
2023-04-30T06:03:59.847Z,83.36
2023-04-30T06:06:27.244Z,81.59
2023-04-30T06:08:54.065Z,80.32
2023-04-30T06:11:21.287Z,75.95
2023-04-30T06:13:49.264Z,76.20
2023-04-30T06:16:16.171Z,75.90
2023-04-30T06:18:43.025Z,74.07
2023-04-30T06:21:09.856Z,75.32
2023-04-30T06:23:37.983Z,74.38
2023-04-30T06:26:05.032Z,75.45
2023-04-30T06:28:31.877Z,71.79
2023-04-30T06:30:59.322Z,72.07
2023-04-30T06:33:26.276Z,75.76
2023-04-30T06:35:55.534Z,76.41
2023-04-30T06:38:22.436Z,75.62
2023-04-30T06:40:49.480Z,72.52
2023-04-30T06:43:17.575Z,74.90
2023-04-30T06:45:44.490Z,74.53
2023-04-30T06:48:11.351Z,75.42
2023-04-30T06:50:45.028Z,73.68
2023-04-30T06:53:12.644Z,75.19
2023-04-30T06:55:40.001Z,70.93
2023-04-30T06:58:07.206Z,71.57
2023-04-30T07:00:37.037Z,72.03
2023-04-30T07:03:05.005Z,71.70
2023-04-30T07:05:32.466Z,70.18
2023-04-30T07:08:02.030Z,70.33
2023-04-30T07:10:29.157Z,68.72
2023-04-30T07:12:56.774Z,68.68
2023-04-30T07:15:23.985Z,65.01
2023-04-30T07:17:50.771Z,66.68
2023-04-30T07:20:17.781Z,68.40
2023-04-30T07:22:46.195Z,65.92
2023-04-30T07:25:13.683Z,65.10
2023-04-30T07:27:41.168Z,65.87
2023-04-30T07:30:10.491Z,66.45
2023-04-30T07:32:38.392Z,65.88
2023-04-30T07:35:05.633Z,66.64
2023-04-30T07:37:34.909Z,65.13
2023-04-30T07:40:03.398Z,66.00
2023-04-30T07:42:30.297Z,66.59
2023-04-30T07:44:57.634Z,67.51
2023-04-30T07:47:25.672Z,64.25
2023-04-30T07:49:53.030Z,65.20
2023-04-30T07:52:20.310Z,62.34
2023-04-30T07:54:47.186Z,63.13
2023-04-30T07:57:14.014Z,63.82
2023-04-30T07:59:40.953Z,63.81
2023-04-30T08:02:09.364Z,62.24
2023-04-30T08:04:36.410Z,64.64
2023-04-30T08:07:04.650Z,62.13
2023-04-30T08:09:31.664Z,63.47
2023-04-30T08:11:58.530Z,63.85
2023-04-30T08:14:25.527Z,64.26
2023-04-30T08:16:52.553Z,62.17
2023-04-30T08:19:19.405Z,61.21
2023-04-30T08:21:46.336Z,62.23
2023-04-30T08:24:13.125Z,61.14
2023-04-30T08:26:39.948Z,58.22
2023-04-30T08:29:08.520Z,61.64
2023-04-30T08:31:36.085Z,60.12
2023-04-30T08:34:03.105Z,59.68
2023-04-30T08:36:29.936Z,60.43
2023-04-30T08:38:57.754Z,61.95
2023-04-30T08:41:27.200Z,59.15
2023-04-30T08:43:54.170Z,61.14
2023-04-30T08:46:23.486Z,59.91
2023-04-30T08:48:50.992Z,60.32
2023-04-30T08:51:17.818Z,57.34
2023-04-30T08:53:46.072Z,59.24
2023-04-30T08:56:13.010Z,57.69
2023-04-30T08:58:41.102Z,58.50
2023-04-30T09:01:08.986Z,58.25
2023-04-30T09:03:38.824Z,55.68
2023-04-30T09:06:05.776Z,56.88
2023-04-30T09:08:49.346Z,56.92
2023-04-30T09:11:30.844Z,55.78
2023-04-30T09:14:00.295Z,55.26
2023-04-30T09:16:30.996Z,56.05
2023-04-30T09:18:57.900Z,50.48
2023-04-30T09:21:35.040Z,52.38
2023-04-30T09:24:05.830Z,51.82
2023-04-30T09:26:38.588Z,52.16
2023-04-30T09:29:10.484Z,50.11
2023-04-30T09:31:39.335Z,50.13
2023-04-30T09:34:06.417Z,49.95
2023-04-30T09:36:33.981Z,50.96
2023-04-30T09:39:17.620Z,51.42
2023-04-30T09:41:44.933Z,52.83
2023-04-30T09:44:32.346Z,50.31
2023-04-30T09:46:59.612Z,50.93
2023-04-30T09:49:27.633Z,52.89
2023-04-30T09:52:01.688Z,49.46
2023-04-30T09:54:32.650Z,51.07
2023-04-30T09:57:01.983Z,50.70
2023-04-30T09:59:35.509Z,50.95
2023-04-30T10:02:05.046Z,50.53
2023-04-30T10:04:42.075Z,49.42
2023-04-30T10:07:22.540Z,52.04
2023-04-30T10:09:53.766Z,51.22
2023-04-30T10:12:56.600Z,48.16
2023-04-30T10:15:31.168Z,49.79
2023-04-30T10:18:02.578Z,50.62
2023-04-30T10:20:31.845Z,49.81
2023-04-30T10:23:00.198Z,49.65
2023-04-30T10:25:28.179Z,49.50
2023-04-30T10:27:55.132Z,50.10
2023-04-30T10:30:22.846Z,48.94
2023-04-30T10:33:07.129Z,48.36
2023-04-30T10:35:49.851Z,46.57
2023-04-30T10:38:25.371Z,48.77
2023-04-30T10:40:57.490Z,47.24
2023-04-30T10:43:25.232Z,48.22
2023-04-30T10:45:52.433Z,46.33
2023-04-30T10:48:27.232Z,50.44
2023-04-30T10:51:00.846Z,48.75
2023-04-30T10:53:31.629Z,48.06
2023-04-30T10:56:09.652Z,48.42
2023-04-30T10:58:38.886Z,50.75
2023-04-30T11:01:17.676Z,48.77
2023-04-30T11:04:08.409Z,47.20
2023-04-30T11:06:56.436Z,46.91
2023-04-30T11:09:44.070Z,49.88
2023-04-30T11:12:28.756Z,46.83
2023-04-30T11:15:16.021Z,48.41
2023-04-30T11:17:45.910Z,47.28
2023-04-30T11:20:14.918Z,47.37
2023-04-30T11:22:41.848Z,48.91
2023-04-30T11:25:13.494Z,48.01
2023-04-30T11:27:45.276Z,47.56
2023-04-30T11:30:15.331Z,46.68
2023-04-30T11:32:46.384Z,45.68
2023-04-30T11:35:14.147Z,47.08
2023-04-30T11:37:46.630Z,44.13
2023-04-30T11:40:14.815Z,44.96
2023-04-30T11:42:47.201Z,46.59
2023-04-30T11:45:18.125Z,46.30
2023-04-30T11:47:54.165Z,45.95
2023-04-30T11:50:29.851Z,45.14
2023-04-30T11:52:58.484Z,44.93
2023-04-30T11:55:28.105Z,45.61
2023-04-30T11:57:57.002Z,44.83
2023-04-30T12:00:29.364Z,42.76
2023-04-30T12:02:59.488Z,43.96
2023-04-30T12:05:28.318Z,42.97
2023-04-30T12:07:57.176Z,43.19
2023-04-30T12:10:25.000Z,43.61
2023-04-30T12:12:53.394Z,39.26
2023-04-30T12:15:26.727Z,41.27
2023-04-30T12:17:58.714Z,41.68
2023-04-30T12:20:29.216Z,41.15
2023-04-30T12:22:57.515Z,40.49
2023-04-30T12:25:25.029Z,38.45
2023-04-30T12:27:53.538Z,40.75
2023-04-30T12:30:22.914Z,41.57
2023-04-30T12:32:52.137Z,40.35
2023-04-30T12:35:21.365Z,40.25
2023-04-30T12:38:01.686Z,40.04
2023-04-30T12:40:28.708Z,39.28
2023-04-30T12:43:04.175Z,35.35
2023-04-30T12:45:43.277Z,35.26
2023-04-30T12:48:10.580Z,37.93
2023-04-30T12:50:39.506Z,35.56
2023-04-30T12:53:07.890Z,31.02
2023-04-30T12:55:37.546Z,30.99
2023-04-30T12:58:07.319Z,32.65
2023-04-30T13:00:50.468Z,30.15
2023-04-30T13:03:20.190Z,31.06
2023-04-30T13:05:51.874Z,27.38
2023-04-30T13:08:20.871Z,28.69
2023-04-30T13:10:48.662Z,28.70
2023-04-30T13:13:16.857Z,27.87
2023-04-30T13:15:44.372Z,28.11
2023-04-30T13:18:12.316Z,29.18
2023-04-30T13:20:39.716Z,27.41
2023-04-30T13:23:07.254Z,27.73
2023-04-30T13:25:35.877Z,27.81
2023-04-30T13:28:03.210Z,27.11
2023-04-30T13:30:32.450Z,26.30
2023-04-30T13:32:59.551Z,27.84
2023-04-30T13:35:26.991Z,26.73
2023-04-30T13:37:54.539Z,27.64
2023-04-30T13:40:21.802Z,25.75
2023-04-30T13:42:49.361Z,25.61
2023-04-30T13:45:16.658Z,24.81
2023-04-30T13:47:43.824Z,26.36
2023-04-30T13:50:11.034Z,26.31
2023-04-30T13:52:37.865Z,28.03
2023-04-30T13:55:05.905Z,26.69
2023-04-30T13:57:35.878Z,27.12
2023-04-30T14:00:02.977Z,25.42
2023-04-30T14:02:35.120Z,26.73
2023-04-30T14:05:06.346Z,25.49
2023-04-30T14:07:34.034Z,24.67
2023-04-30T14:10:00.926Z,25.12
2023-04-30T14:12:27.786Z,24.11
2023-04-30T14:14:54.590Z,24.55
2023-04-30T14:17:21.567Z,24.65
2023-04-30T14:19:48.451Z,24.71
2023-04-30T14:22:15.352Z,27.53
2023-04-30T14:24:42.139Z,29.17
2023-04-30T14:27:09.060Z,31.24
2023-04-30T14:29:35.826Z,31.30
2023-04-30T14:32:02.797Z,28.79
2023-04-30T14:34:29.719Z,28.01
2023-04-30T14:36:59.543Z,29.60
2023-04-30T14:39:26.968Z,28.84
2023-04-30T14:41:54.336Z,29.65
2023-04-30T14:44:25.088Z,27.69
2023-04-30T14:46:52.308Z,27.62
2023-04-30T14:49:19.496Z,24.19
2023-04-30T14:51:46.399Z,24.58
2023-04-30T14:54:13.256Z,24.96
2023-04-30T14:56:40.440Z,25.68
2023-04-30T14:59:07.350Z,24.42
2023-04-30T15:01:34.179Z,25.42
2023-04-30T15:04:01.278Z,23.79
2023-04-30T15:06:28.196Z,25.52
2023-04-30T15:08:55.413Z,25.14
2023-04-30T15:11:22.544Z,25.77
2023-04-30T15:13:49.392Z,25.69
2023-04-30T15:16:17.464Z,26.22
2023-04-30T15:18:44.535Z,27.11
2023-04-30T15:21:11.343Z,26.08
2023-04-30T15:23:38.411Z,26.48
2023-04-30T15:26:05.442Z,27.56
2023-04-30T15:28:33.020Z,26.88
2023-04-30T15:31:01.296Z,27.94
2023-04-30T15:33:29.105Z,25.55
2023-04-30T15:35:55.940Z,26.78
2023-04-30T15:38:22.932Z,27.06
2023-04-30T15:40:49.784Z,28.12
2023-04-30T15:43:16.861Z,25.72
2023-04-30T15:45:46.105Z,25.94
2023-04-30T15:48:12.996Z,25.97
2023-04-30T15:50:39.879Z,25.41
2023-04-30T15:53:06.672Z,26.13
2023-04-30T15:55:33.818Z,29.81
2023-04-30T15:58:00.636Z,29.98
2023-04-30T16:00:28.911Z,27.82
2023-04-30T16:02:56.074Z,29.82
2023-04-30T16:05:23.098Z,31.39
2023-04-30T16:07:50.005Z,35.65
2023-04-30T16:10:17.173Z,37.65
2023-04-30T16:12:44.132Z,37.23
2023-04-30T16:15:11.459Z,38.04
2023-04-30T16:17:38.307Z,41.48
2023-04-30T16:20:05.764Z,41.00
2023-04-30T16:22:32.673Z,43.86
2023-04-30T16:24:59.527Z,43.51
2023-04-30T16:27:26.390Z,45.00
2023-04-30T16:29:53.540Z,47.06
2023-04-30T16:32:21.516Z,45.66
2023-04-30T16:34:48.508Z,47.38
2023-04-30T16:37:15.845Z,47.78
2023-04-30T16:39:42.791Z,46.54
2023-04-30T16:42:09.744Z,47.56
2023-04-30T16:44:37.322Z,47.56
2023-04-30T16:47:04.230Z,48.18
2023-04-30T16:49:31.232Z,49.46
2023-04-30T16:51:58.170Z,49.39
2023-04-30T16:54:25.120Z,46.35
2023-04-30T16:56:52.098Z,46.66
2023-04-30T16:59:19.217Z,47.84
2023-04-30T17:01:46.496Z,48.15
2023-04-30T17:04:14.412Z,46.78
2023-04-30T17:06:41.446Z,47.32
2023-04-30T17:09:08.427Z,49.15
2023-04-30T17:11:35.375Z,47.95
2023-04-30T17:14:02.275Z,47.90
2023-04-30T17:16:29.377Z,48.57
2023-04-30T17:18:56.347Z,48.76
2023-04-30T17:21:23.493Z,49.49
2023-04-30T17:23:50.367Z,49.54
2023-04-30T17:26:18.608Z,50.80
2023-04-30T17:28:45.515Z,49.04
2023-04-30T17:31:13.705Z,47.64
2023-04-30T17:33:41.528Z,48.93
2023-04-30T17:36:09.099Z,51.34
2023-04-30T17:38:36.128Z,48.80
2023-04-30T17:41:02.937Z,49.44
2023-04-30T17:43:29.927Z,50.51
2023-04-30T17:45:57.535Z,49.90
2023-04-30T17:48:24.542Z,51.83
2023-04-30T17:50:51.573Z,53.87
2023-04-30T17:53:18.394Z,51.06
2023-04-30T17:55:45.725Z,52.42
2023-04-30T17:58:12.642Z,52.03
2023-04-30T18:00:41.532Z,52.28
2023-04-30T18:03:08.603Z,52.88
2023-04-30T18:05:35.984Z,54.98
2023-04-30T18:08:03.512Z,53.71
2023-04-30T18:10:30.362Z,52.43
2023-04-30T18:13:01.072Z,53.64
2023-04-30T18:15:28.127Z,54.25
2023-04-30T18:17:55.149Z,54.53
2023-04-30T18:20:22.385Z,54.33
2023-04-30T18:22:49.231Z,53.32
2023-04-30T18:25:17.498Z,55.55
2023-04-30T18:27:44.522Z,54.07
2023-04-30T18:30:15.272Z,55.06
2023-04-30T18:32:44.206Z,55.16
2023-04-30T18:35:11.185Z,55.07
2023-04-30T18:37:38.032Z,58.03
2023-04-30T18:40:05.282Z,57.31
2023-04-30T18:42:33.597Z,55.03
2023-04-30T18:45:01.259Z,55.77
2023-04-30T18:47:28.136Z,57.13
2023-04-30T18:49:55.137Z,58.56
2023-04-30T18:52:23.124Z,57.75
2023-04-30T18:54:50.109Z,57.83
2023-04-30T18:57:18.586Z,58.89
2023-04-30T18:59:45.407Z,58.50
2023-04-30T19:02:12.861Z,58.49
2023-04-30T19:04:39.775Z,57.58
2023-04-30T19:07:06.706Z,58.36
2023-04-30T19:09:37.073Z,59.72
2023-04-30T19:12:04.098Z,59.98
2023-04-30T19:14:31.210Z,59.74
2023-04-30T19:16:58.131Z,60.39
2023-04-30T19:19:25.001Z,61.78
2023-04-30T19:21:51.837Z,61.18
2023-04-30T19:24:18.788Z,61.04
2023-04-30T19:26:45.710Z,60.72
2023-04-30T19:29:12.752Z,61.15
2023-04-30T19:31:39.713Z,61.45
2023-04-30T19:34:06.544Z,61.08
2023-04-30T19:36:33.524Z,62.32
2023-04-30T19:39:00.495Z,63.86
2023-04-30T19:41:27.906Z,63.47
2023-04-30T19:43:54.897Z,62.61
2023-04-30T19:46:21.952Z,63.09
2023-04-30T19:48:50.537Z,63.86
2023-04-30T19:51:17.522Z,65.60
2023-04-30T19:53:44.536Z,64.34
2023-04-30T19:56:11.583Z,65.12
2023-04-30T19:58:38.431Z,65.74
2023-04-30T20:01:05.625Z,66.33
2023-04-30T20:03:34.249Z,66.54
2023-04-30T20:06:02.993Z,66.30
2023-04-30T20:08:29.862Z,67.25
2023-04-30T20:10:57.536Z,68.03
2023-04-30T20:13:25.298Z,68.36
2023-04-30T20:15:52.271Z,68.99
2023-04-30T20:18:19.081Z,68.81
2023-04-30T20:20:46.273Z,69.36
2023-04-30T20:23:15.336Z,69.39
2023-04-30T20:25:45.243Z,69.90
2023-04-30T20:28:13.434Z,70.82
2023-04-30T20:30:42.953Z,70.85
2023-04-30T20:33:11.364Z,71.29
2023-04-30T20:35:42.157Z,72.11
2023-04-30T20:38:09.644Z,72.68
2023-04-30T20:40:40.236Z,72.44
2023-04-30T20:43:08.715Z,72.89
2023-04-30T20:45:35.656Z,73.28
2023-04-30T20:48:03.043Z,73.39
2023-04-30T20:50:29.901Z,73.32
2023-04-30T20:52:57.124Z,73.30
2023-04-30T20:55:24.062Z,73.18
2023-04-30T20:57:51.296Z,73.75
2023-04-30T21:00:18.349Z,70.43
2023-04-30T21:02:45.540Z,71.43
2023-04-30T21:05:12.537Z,72.00
2023-04-30T21:07:39.516Z,70.78
2023-04-30T21:10:08.222Z,69.77
2023-04-30T21:12:35.523Z,70.34
2023-04-30T21:15:02.467Z,69.40
2023-04-30T21:17:29.294Z,68.67
2023-04-30T21:19:57.477Z,68.75
2023-04-30T21:22:24.753Z,68.50
2023-04-30T21:24:54.438Z,69.27
2023-04-30T21:27:22.093Z,68.93
2023-04-30T21:29:49.027Z,68.87
2023-04-30T21:32:17.021Z,69.03
2023-04-30T21:34:44.400Z,71.10
2023-04-30T21:37:11.367Z,69.95
2023-04-30T21:39:38.259Z,69.67
2023-04-30T21:42:05.398Z,69.55
2023-04-30T21:44:36.262Z,70.04
2023-04-30T21:47:03.934Z,71.75
2023-04-30T21:49:31.474Z,70.58
2023-04-30T21:51:58.398Z,70.56
2023-04-30T21:54:25.426Z,72.41
2023-04-30T21:56:52.264Z,72.64
2023-04-30T21:59:19.131Z,73.03
2023-04-30T22:01:46.082Z,72.92
2023-04-30T22:04:13.042Z,73.22
2023-04-30T22:06:40.480Z,73.76
2023-04-30T22:09:07.354Z,72.89
2023-04-30T22:11:34.177Z,73.10
2023-04-30T22:14:00.976Z,73.49
2023-04-30T22:16:27.956Z,74.63
2023-04-30T22:18:57.390Z,74.64
2023-04-30T22:21:26.014Z,73.89
2023-04-30T22:23:52.774Z,75.48
2023-04-30T22:26:19.701Z,75.54
2023-04-30T22:28:46.502Z,74.55
2023-04-30T22:31:13.395Z,74.29
2023-04-30T22:33:40.230Z,74.91
2023-04-30T22:36:08.031Z,73.15
2023-04-30T22:38:35.496Z,74.78
2023-04-30T22:41:03.918Z,74.59
2023-04-30T22:43:31.155Z,74.27
2023-04-30T22:45:59.032Z,73.04
2023-04-30T22:48:30.189Z,74.60
2023-04-30T22:50:58.878Z,74.46
2023-04-30T22:53:26.482Z,74.28
2023-04-30T22:55:55.257Z,74.44
2023-04-30T22:58:22.537Z,74.09
2023-04-30T23:00:49.368Z,73.68
2023-04-30T23:03:16.386Z,73.87
2023-04-30T23:05:43.566Z,73.43
2023-04-30T23:08:10.439Z,74.44
2023-04-30T23:10:37.258Z,74.51
2023-04-30T23:13:04.125Z,73.89
2023-04-30T23:15:31.002Z,74.31
2023-04-30T23:18:00.461Z,74.06
2023-04-30T23:20:27.546Z,74.11
2023-04-30T23:22:54.434Z,75.05
2023-04-30T23:25:21.595Z,75.70
2023-04-30T23:27:48.479Z,75.76
2023-04-30T23:30:15.458Z,77.05
2023-04-30T23:32:42.334Z,75.68
2023-04-30T23:35:09.464Z,75.42
2023-04-30T23:37:36.495Z,74.47
2023-04-30T23:40:07.540Z,75.87
2023-04-30T23:42:34.892Z,75.60
2023-04-30T23:45:02.056Z,75.23
2023-04-30T23:47:29.190Z,74.68
2023-04-30T23:49:56.747Z,75.37
2023-04-30T23:52:23.803Z,76.51
2023-04-30T23:54:50.820Z,75.74
2023-04-30T23:57:17.830Z,76.28
2023-04-30T23:59:44.639Z,76.02
